aviador You're here:

PAKF Decoded Metar

FALSE PASS in AK, US
Report Time2017-11-24 21:38:00
UTC Time2017-11-24 21:57:14
Flight Rules vfr VFR
Wind340° at 17 Gusting to 32 kt
W.Decomp.*RWY 32: 17.0 kt HW 1.2 kt RCW
W.Rank340° ranks 14
Current wind is above 340° avg. (10.1)
Visibility9999 m
Phenomena:Light Rain
Clouds:N/A
Expected CloudBase > 1,200 ft AGL from Temp-Dew spread
CeilingNone
Temp04°C (ISA -11)
Dew Point01°C (81% RH)
AAT-4.0°C
QNH1027 hPa
Density Alt-1,693 ft
Elevation19 ft
Report Wrong Elevation
Raw Report
PAKF 242138Z AUTO 34017G32KT 8SM -RA 04/01 A3032 RMK AO2 PK WND
30033/2123 RAB18 P0002 $=

Extra information for PAKF:More info

Metar Taf Metar & Taf Last 4 Metars F.Rules Stats Wind Profile Meteogram Temp Stats Airport Information Weather charts Add Link Nearby VenuesMetar ALERT Operation Metar Decoded Social comments